Time;durP1;ratioP1;P1;durP2;ratioP2;P2;SDS_P1;SDS_P2;PMS_P1;PMS_P2;Temp;Humidity;BMP_temperature;BMP_pressure;BME280_temperature;BME280_humidity;BME280_pressure;Samples;Min_cycle;Max_cycle;Signal;HPM_P1;HPM_P2
2021/09/05 00:01:24;;;;;;;18.95;10.73;;;;;;;;;;4338573;33;20163;-86
2021/09/05 00:04:05;;;;;;;21.40;11.48;;;;;;;;;;4351620;33;20136;-87
2021/09/05 00:06:54;;;;;;;20.55;11.27;;;;;;;;;;4335849;33;20155;-87
2021/09/05 00:09:22;;;;;;;19.10;11.05;;;;;;;;;;4334746;33;20211;-87
2021/09/05 00:11:50;;;;;;;23.38;11.80;;;;;;;;;;4340586;33;20160;-87
2021/09/05 00:14:15;;;;;;;19.05;11.10;;;;;;;;;;4339482;33;20577;-87
2021/09/05 00:16:43;;;;;;;17.85;10.48;;;;;;;;;;4336967;33;20186;-87
2021/09/05 00:19:11;;;;;;;23.23;11.60;;;;;;;;;;4334618;33;20198;-87
2021/09/05 00:22:09;;;;;;;20.92;11.12;;;;;;;;;;4334148;33;20222;-86
2021/09/05 00:24:57;;;;;;;27.05;12.02;;;;;;;;;;4346299;33;20163;-87
2021/09/05 00:27:35;;;;;;;;;;;;;;;;;;;;;
2021/09/05 00:30:07;;;;;;;18.42;11.12;;;;;;;;;;4278858;33;20558;-86
2021/09/05 00:32:41;;;;;;;20.92;12.07;;;;;;;;;;4327172;33;20194;-86
2021/09/05 00:35:09;;;;;;;18.58;11.12;;;;;;;;;;4347725;33;20183;-86
2021/09/05 00:37:34;;;;;;;18.42;11.15;;;;;;;;;;4347077;33;20177;-86
2021/09/05 00:40:09;;;;;;;21.08;10.90;;;;;;;;;;4333645;33;20193;-86
2021/09/05 00:42:36;;;;;;;25.70;11.55;;;;;;;;;;4347163;33;20236;-86
2021/09/05 00:45:07;;;;;;;21.27;11.00;;;;;;;;;;4333380;33;20156;-86
2021/09/05 00:47:40;;;;;;;22.02;11.18;;;;;;;;;;4332930;33;20151;-86
2021/09/05 00:50:06;;;;;;;20.98;11.35;;;;;;;;;;4347144;33;20139;-86
2021/09/05 00:52:31;;;;;;;24.50;11.43;;;;;;;;;;4333276;33;20479;-86
2021/09/05 00:55:00;;;;;;;23.02;11.52;;;;;;;;;;4346897;33;20147;-86
2021/09/05 00:57:35;;;;;;;21.02;11.10;;;;;;;;;;4329171;33;20167;-86
2021/09/05 01:00:19;;;;;;;22.73;11.63;;;;;;;;;;4326499;33;20144;-87
2021/09/05 01:02:47;;;;;;;22.87;11.98;;;;;;;;;;4318989;33;20258;-86
2021/09/05 01:05:15;;;;;;;20.12;11.20;;;;;;;;;;4331930;33;20195;-86
2021/09/05 01:07:43;;;;;;;23.12;11.98;;;;;;;;;;4318477;33;20159;-86
2021/09/05 01:10:10;;;;;;;20.80;11.20;;;;;;;;;;4317319;33;20206;-85
2021/09/05 01:12:47;;;;;;;18.55;10.50;;;;;;;;;;4331825;33;20148;-87
2021/09/05 01:15:15;;;;;;;22.00;11.07;;;;;;;;;;4318523;33;20155;-86
2021/09/05 01:17:41;;;;;;;23.92;11.57;;;;;;;;;;4319967;33;20156;-85
2021/09/05 01:20:25;;;;;;;17.85;10.82;;;;;;;;;;4331919;33;20163;-86
2021/09/05 01:22:56;;;;;;;20.23;11.52;;;;;;;;;;4342015;33;20184;-86
2021/09/05 01:25:40;;;;;;;26.35;12.65;;;;;;;;;;4319054;33;20513;-86
2021/09/05 01:28:09;;;;;;;25.73;12.35;;;;;;;;;;4333122;33;20124;-86
2021/09/05 01:30:35;;;;;;;21.05;10.95;;;;;;;;;;4318077;33;20175;-87
2021/09/05 01:33:03;;;;;;;20.20;10.63;;;;;;;;;;4318112;33;20186;-86
2021/09/05 01:35:42;;;;;;;20.90;11.00;;;;;;;;;;4331505;33;20147;-87
2021/09/05 01:38:07;;;;;;;22.75;11.68;;;;;;;;;;4319606;33;20207;-86
2021/09/05 01:40:44;;;;;;;25.05;12.48;;;;;;;;;;4333118;33;20202;-86
2021/09/05 01:43:12;;;;;;;20.58;11.52;;;;;;;;;;4346306;33;20158;-86
2021/09/05 01:45:37;;;;;;;21.20;10.85;;;;;;;;;;4332343;33;20159;-86
2021/09/05 01:57:32;;;;;;;24.67;12.60;;;;;;;;;;4257729;33;20197;-86
2021/09/05 02:00:26;;;;;;;19.73;10.80;;;;;;;;;;4327228;33;20691;-86
2021/09/05 02:10:11;;;;;;;23.10;11.45;;;;;;;;;;4347945;33;20221;-86
2021/09/05 02:13:05;;;;;;;21.45;11.35;;;;;;;;;;4286352;33;20172;-86
2021/09/05 02:16:31;;;;;;;;;;;;;;;;;;;;;
2021/09/05 02:19:26;;;;;;;24.05;12.45;;;;;;;;;;4286788;33;20141;-86
2021/09/05 02:25:23;;;;;;;27.65;12.13;;;;;;;;;;4266684;33;20577;-86
2021/09/05 02:35:03;;;;;;;22.17;11.05;;;;;;;;;;4273976;33;20257;-86
2021/09/05 02:43:53;;;;;;;21.83;11.77;;;;;;;;;;4259944;33;20643;-86
2021/09/05 02:52:57;;;;;;;23.38;11.35;;;;;;;;;;4259869;33;20189;-86
2021/09/05 02:59:02;;;;;;;19.98;10.93;;;;;;;;;;4217382;34;20207;-86
2021/09/05 03:02:00;;;;;;;20.90;12.15;;;;;;;;;;4258971;33;20506;-86
2021/09/05 03:08:15;;;;;;;23.87;11.80;;;;;;;;;;4207234;34;20605;-86
2021/09/05 03:16:31;;;;;;;23.00;10.80;;;;;;;;;;4273041;33;20157;-85
2021/09/05 03:19:08;;;;;;;24.90;12.13;;;;;;;;;;4273433;33;20180;-86
2021/09/05 03:21:50;;;;;;;21.65;11.63;;;;;;;;;;4257654;33;20192;-86
2021/09/05 03:24:39;;;;;;;22.70;12.13;;;;;;;;;;4272974;33;20171;-85
2021/09/05 03:30:26;;;;;;;;;;;;;;;;;;;;;
2021/09/05 03:33:30;;;;;;;;;;;;;;;;;;;;;
2021/09/05 03:36:10;;;;;;;27.70;13.65;;;;;;;;;;4331662;33;20178;-87
2021/09/05 03:38:44;;;;;;;27.67;12.60;;;;;;;;;;4319849;33;20152;-86
2021/09/05 03:47:26;;;;;;;24.45;11.90;;;;;;;;;;4289646;33;20633;-87
2021/09/05 03:53:10;;;;;;;25.35;12.50;;;;;;;;;;4347797;33;20195;-87
2021/09/05 03:55:51;;;;;;;;;;;;;;;;;;;;;
2021/09/05 03:58:41;;;;;;;25.80;13.55;;;;;;;;;;4287404;33;20136;-86
2021/09/05 04:01:47;;;;;;;26.55;13.18;;;;;;;;;;4327310;33;20186;-87
2021/09/05 04:04:21;;;;;;;27.08;12.77;;;;;;;;;;4347760;33;20151;-86
2021/09/05 04:13:26;;;;;;;25.05;12.50;;;;;;;;;;4301421;33;20199;-86
2021/09/05 04:15:59;;;;;;;26.17;12.88;;;;;;;;;;4346693;33;20171;-87
2021/09/05 04:19:06;;;;;;;;;;;;;;;;;;;;;
2021/09/05 04:21:32;;;;;;;23.33;12.15;;;;;;;;;;4317896;33;20158;-87
2021/09/05 04:24:12;;;;;;;25.67;12.65;;;;;;;;;;4347244;33;20127;-86
2021/09/05 04:27:13;;;;;;;25.65;12.23;;;;;;;;;;4347163;33;20147;-86
2021/09/05 04:29:52;;;;;;;26.60;12.60;;;;;;;;;;4347014;33;20154;-86
2021/09/05 04:32:39;;;;;;;26.05;13.00;;;;;;;;;;4345337;33;20193;-86
2021/09/05 04:35:46;;;;;;;24.02;12.30;;;;;;;;;;4347129;33;20152;-86
2021/09/05 04:38:40;;;;;;;28.48;13.32;;;;;;;;;;4344480;33;20227;-86
2021/09/05 04:41:17;;;;;;;26.08;13.10;;;;;;;;;;4344294;33;20231;-86
2021/09/05 04:44:06;;;;;;;;;;;;;;;;;;;;;
2021/09/05 04:47:05;;;;;;;;;;;;;;;;;;;;;
2021/09/05 04:49:48;;;;;;;24.73;13.18;;;;;;;;;;4341466;33;20163;-87
2021/09/05 04:52:53;;;;;;;24.63;12.18;;;;;;;;;;4333463;33;20159;-87
2021/09/05 04:55:30;;;;;;;23.77;12.20;;;;;;;;;;4345577;33;20188;-87
2021/09/05 04:58:15;;;;;;;27.35;13.70;;;;;;;;;;4347131;33;20170;-86
2021/09/05 05:00:49;;;;;;;27.73;12.75;;;;;;;;;;4333210;33;20156;-86
2021/09/05 05:03:48;;;;;;;26.52;12.88;;;;;;;;;;4346406;33;20167;-87
2021/09/05 05:07:17;;;;;;;;;;;;;;;;;;;;;
2021/09/05 05:15:59;;;;;;;22.65;12.57;;;;;;;;;;4257629;33;20246;-86
2021/09/05 05:22:27;;;;;;;;;;;;;;;;;;;;;
2021/09/05 05:37:20;;;;;;;29.42;13.40;;;;;;;;;;4214511;34;20155;-88
2021/09/05 05:40:38;;;;;;;28.35;14.32;;;;;;;;;;4215650;34;20187;-86
2021/09/05 05:43:56;;;;;;;24.63;12.82;;;;;;;;;;4201548;34;20252;-86
2021/09/05 05:47:14;;;;;;;27.13;13.00;;;;;;;;;;4209857;34;20181;-87
2021/09/05 05:50:05;;;;;;;21.45;11.70;;;;;;;;;;4182271;34;20231;-85
2021/09/05 05:55:49;;;;;;;25.80;13.00;;;;;;;;;;4271241;33;20220;-86
2021/09/05 05:58:37;;;;;;;24.00;12.30;;;;;;;;;;4271090;33;20200;-86
2021/09/05 06:01:23;;;;;;;21.10;11.85;;;;;;;;;;4332773;33;20167;-86
2021/09/05 06:04:30;;;;;;;23.52;12.68;;;;;;;;;;4346255;33;20135;-87
2021/09/05 06:06:52;;;;;;;25.52;12.55;;;;;;;;;;4341727;33;20175;-87
2021/09/05 06:09:55;;;;;;;20.98;12.07;;;;;;;;;;4332404;33;20159;-86
2021/09/05 06:12:55;;;;;;;22.27;11.63;;;;;;;;;;4315100;33;20155;-86
2021/09/05 06:18:49;;;;;;;;;;;;;;;;;;;;;
2021/09/05 06:27:24;;;;;;;24.33;12.18;;;;;;;;;;4299567;33;20148;-86
2021/09/05 06:33:20;;;;;;;;;;;;;;;;;;;;;
2021/09/05 06:35:53;;;;;;;18.85;11.12;;;;;;;;;;4299949;33;20169;-86
2021/09/05 06:38:39;;;;;;;22.02;12.05;;;;;;;;;;4315136;33;20155;-87
2021/09/05 06:41:45;;;;;;;27.85;12.52;;;;;;;;;;4331239;33;20190;-88
2021/09/05 06:47:27;;;;;;;27.17;12.55;;;;;;;;;;4299830;33;20360;-86
2021/09/05 06:50:14;;;;;;;;;;;;;;;;;;;;;
2021/09/05 06:56:47;;;;;;;24.12;12.57;;;;;;;;;;4289735;33;20157;-86
2021/09/05 06:59:05;;;;;;;22.85;11.68;;;;;;;;;;4336331;33;20168;-86
2021/09/05 07:01:57;;;;;;;21.15;11.35;;;;;;;;;;4347362;33;20182;-86
2021/09/05 07:05:43;;;;;;;19.85;11.50;;;;;;;;;;4333921;33;20171;-87
2021/09/05 07:08:05;;;;;;;;;;;;;;;;;;;;;
2021/09/05 07:10:47;;;;;;;20.45;12.05;;;;;;;;;;4362883;33;20262;-85
2021/09/05 07:13:26;;;;;;;21.75;12.00;;;;;;;;;;4364529;32;20218;-85
2021/09/05 07:20:08;;;;;;;21.75;12.05;;;;;;;;;;4292733;33;20157;-85
2021/09/05 07:22:24;;;;;;;23.25;12.10;;;;;;;;;;4355961;32;20206;-88
2021/09/05 07:25:20;;;;;;;;;;;;;;;;;;;;;
2021/09/05 07:28:15;;;;;;;22.42;11.82;;;;;;;;;;4317592;33;20144;-87
2021/09/05 07:31:29;;;;;;;;;;;;;;;;;;;;;
2021/09/05 07:33:41;;;;;;;19.87;11.35;;;;;;;;;;4357396;33;20167;-86
2021/09/05 07:36:11;;;;;;;22.20;13.25;;;;;;;;;;4345294;33;20160;-87
2021/09/05 07:38:46;;;;;;;21.58;11.82;;;;;;;;;;4352580;33;20151;-87
2021/09/05 07:41:32;;;;;;;24.77;12.63;;;;;;;;;;4351442;33;20174;-84
2021/09/05 07:44:09;;;;;;;26.30;12.60;;;;;;;;;;4336283;33;20167;-87
2021/09/05 07:46:58;;;;;;;23.90;12.55;;;;;;;;;;4352572;33;20249;-86
2021/09/05 07:49:36;;;;;;;26.10;12.15;;;;;;;;;;4342482;33;20167;-86
2021/09/05 07:52:07;;;;;;;24.37;12.80;;;;;;;;;;4351884;33;20135;-86
2021/09/05 07:54:32;;;;;;;21.25;11.52;;;;;;;;;;4339371;33;20159;-85
2021/09/05 07:57:08;;;;;;;19.95;10.98;;;;;;;;;;4348417;33;20162;-84
2021/09/05 07:59:36;;;;;;;20.35;11.57;;;;;;;;;;4334473;33;20237;-84
2021/09/05 08:02:09;;;;;;;22.75;11.90;;;;;;;;;;4347179;33;20495;-85
2021/09/05 08:04:56;;;;;;;21.90;11.40;;;;;;;;;;4352336;33;20186;-84
2021/09/05 08:07:47;;;;;;;18.08;11.25;;;;;;;;;;4353897;33;20198;-84
2021/09/05 08:10:40;;;;;;;;;;;;;;;;;;;;;
2021/09/05 08:13:34;;;;;;;16.90;10.82;;;;;;;;;;4354101;33;20143;-85
2021/09/05 08:16:03;;;;;;;18.95;10.63;;;;;;;;;;4350320;33;20164;-83
2021/09/05 08:21:27;;;;;;;21.33;11.45;;;;;;;;;;4352112;33;20158;-84
2021/09/05 08:23:53;;;;;;;20.12;10.30;;;;;;;;;;4338602;33;20152;-84
2021/09/05 08:26:20;;;;;;;17.95;10.50;;;;;;;;;;4355500;33;20162;-85
2021/09/05 08:31:56;;;;;;;19.15;10.93;;;;;;;;;;4345615;33;20150;-85
2021/09/05 08:34:43;;;;;;;20.88;10.23;;;;;;;;;;4356528;33;20120;-84
2021/09/05 08:37:22;;;;;;;17.20;10.32;;;;;;;;;;4358286;33;20447;-83
2021/09/05 08:39:59;;;;;;;17.55;9.75;;;;;;;;;;4355773;33;20181;-83
2021/09/05 08:42:27;;;;;;;18.33;9.95;;;;;;;;;;4356904;33;20217;-84
2021/09/05 08:45:04;;;;;;;18.70;9.93;;;;;;;;;;4352139;33;20162;-84
2021/09/05 08:47:32;;;;;;;17.12;10.48;;;;;;;;;;4347188;33;20221;-83
2021/09/05 08:50:16;;;;;;;;;;;;;;;;;;;;;
2021/09/05 08:52:52;;;;;;;17.92;10.02;;;;;;;;;;4347337;33;20143;-83
2021/09/05 08:55:24;;;;;;;17.87;10.18;;;;;;;;;;4347254;33;20218;-83
2021/09/05 08:58:07;;;;;;;;;;;;;;;;;;;;;
2021/09/05 09:00:43;;;;;;;17.27;9.75;;;;;;;;;;4346800;33;20162;-85
2021/09/05 09:03:23;;;;;;;15.95;9.77;;;;;;;;;;4333902;33;20155;-84
2021/09/05 09:05:57;;;;;;;16.95;9.18;;;;;;;;;;4347422;33;20202;-84
2021/09/05 09:08:23;;;;;;;16.98;9.15;;;;;;;;;;4347220;33;20130;-84
2021/09/05 09:10:50;;;;;;;20.20;9.93;;;;;;;;;;4346242;33;20604;-84
2021/09/05 09:13:32;;;;;;;14.70;8.73;;;;;;;;;;4346303;33;20175;-84
2021/09/05 09:16:03;;;;;;;19.20;9.50;;;;;;;;;;4332614;33;20167;-85
2021/09/05 09:18:32;;;;;;;15.10;9.45;;;;;;;;;;4346368;33;20131;-84
2021/09/05 09:21:04;;;;;;;18.10;9.93;;;;;;;;;;4347307;33;20545;-85
2021/09/05 09:23:30;;;;;;;17.67;9.13;;;;;;;;;;4347861;33;20146;-85
2021/09/05 09:25:56;;;;;;;15.82;9.05;;;;;;;;;;4346429;33;20151;-84
2021/09/05 09:29:01;;;;;;;;;;;;;;;;;;;;;
2021/09/05 09:31:47;;;;;;;;;;;;;;;;;;;;;
2021/09/05 09:34:21;;;;;;;16.55;9.23;;;;;;;;;;4346276;33;20147;-84
2021/09/05 09:36:56;;;;;;;14.93;9.07;;;;;;;;;;4345922;33;20132;-83
2021/09/05 09:39:44;;;;;;;18.60;8.90;;;;;;;;;;4346583;33;20147;-84
2021/09/05 09:42:45;;;;;;;16.00;8.98;;;;;;;;;;4344456;33;20191;-85
2021/09/05 09:45:15;;;;;;;14.48;8.50;;;;;;;;;;4346031;33;20491;-83
2021/09/05 09:47:51;;;;;;;14.02;8.80;;;;;;;;;;4345956;33;20468;-84
2021/09/05 09:50:34;;;;;;;;;;;;;;;;;;;;;
2021/09/05 09:53:15;;;;;;;16.55;8.82;;;;;;;;;;4345716;33;20152;-84
2021/09/05 09:55:41;;;;;;;17.87;9.15;;;;;;;;;;4346088;33;20119;-85
2021/09/05 09:58:32;;;;;;;14.30;8.05;;;;;;;;;;4335132;33;20139;-84
2021/09/05 10:01:00;;;;;;;15.15;8.73;;;;;;;;;;4350264;33;20198;-84
2021/09/05 10:03:34;;;;;;;18.08;8.93;;;;;;;;;;4334370;33;20251;-85
2021/09/05 10:06:05;;;;;;;17.27;8.55;;;;;;;;;;4350776;33;20131;-85
2021/09/05 10:08:35;;;;;;;15.98;8.23;;;;;;;;;;4336462;33;20194;-83
2021/09/05 10:11:00;;;;;;;14.93;8.73;;;;;;;;;;4347783;33;20147;-84
2021/09/05 10:13:31;;;;;;;16.05;8.80;;;;;;;;;;4345398;33;20216;-85
2021/09/05 10:15:57;;;;;;;13.95;8.70;;;;;;;;;;4345516;33;20135;-80
2021/09/05 10:18:34;;;;;;;17.17;8.35;;;;;;;;;;4345279;33;20132;-84
2021/09/05 10:21:00;;;;;;;16.50;9.35;;;;;;;;;;4331681;33;20501;-84
2021/09/05 10:23:29;;;;;;;15.60;8.80;;;;;;;;;;4331601;33;20197;-84
2021/09/05 10:26:24;;;;;;;15.05;8.27;;;;;;;;;;4345484;33;20217;-84
2021/09/05 10:28:54;;;;;;;15.07;8.52;;;;;;;;;;4329308;33;20489;-86
2021/09/05 10:31:29;;;;;;;13.55;8.23;;;;;;;;;;4331833;33;20255;-84
2021/09/05 10:34:27;;;;;;;14.73;8.32;;;;;;;;;;4345704;33;20290;-82
2021/09/05 10:37:02;;;;;;;18.83;9.20;;;;;;;;;;4345437;33;20127;-84
2021/09/05 10:39:30;;;;;;;12.45;7.87;;;;;;;;;;4345717;33;20193;-84
2021/09/05 10:41:56;;;;;;;18.12;9.07;;;;;;;;;;4331448;33;20178;-84
2021/09/05 10:44:21;;;;;;;15.50;9.27;;;;;;;;;;4346954;33;20167;-85
2021/09/05 10:46:47;;;;;;;15.98;8.50;;;;;;;;;;4347908;33;20155;-84
2021/09/05 10:49:15;;;;;;;15.48;8.38;;;;;;;;;;4348024;33;20151;-84
2021/09/05 10:51:57;;;;;;;14.82;8.60;;;;;;;;;;4347686;33;20514;-84
2021/09/05 10:54:28;;;;;;;13.48;8.30;;;;;;;;;;4334470;33;20629;-85
2021/09/05 10:56:55;;;;;;;16.12;8.60;;;;;;;;;;4347948;33;20190;-84
2021/09/05 10:59:24;;;;;;;14.77;8.43;;;;;;;;;;4347685;33;20136;-84
2021/09/05 11:02:12;;;;;;;15.80;8.70;;;;;;;;;;4334277;33;20517;-84
2021/09/05 11:04:39;;;;;;;14.57;8.10;;;;;;;;;;4336190;33;20573;-85
2021/09/05 11:07:06;;;;;;;15.65;7.55;;;;;;;;;;4347507;33;20163;-84
2021/09/05 11:09:31;;;;;;;12.00;7.12;;;;;;;;;;4334089;33;20242;-84
2021/09/05 11:11:59;;;;;;;14.25;7.75;;;;;;;;;;4347933;33;20133;-84
2021/09/05 11:14:57;;;;;;;9.20;6.35;;;;;;;;;;4348078;33;20539;-84
2021/09/05 11:17:41;;;;;;;10.43;6.45;;;;;;;;;;4347629;33;20193;-84
2021/09/05 11:20:15;;;;;;;11.65;6.62;;;;;;;;;;4334509;33;20517;-86
2021/09/05 11:22:47;;;;;;;8.68;6.20;;;;;;;;;;4347722;33;20139;-84
2021/09/05 11:25:19;;;;;;;10.15;5.50;;;;;;;;;;4347697;33;20135;-84
2021/09/05 11:27:55;;;;;;;9.90;6.97;;;;;;;;;;4347562;33;20193;-84
2021/09/05 11:30:21;;;;;;;9.63;6.75;;;;;;;;;;4333961;33;20167;-82
2021/09/05 11:32:52;;;;;;;9.52;6.35;;;;;;;;;;4333931;33;20501;-84
2021/09/05 11:35:19;;;;;;;10.95;6.57;;;;;;;;;;4348134;33;20198;-85
2021/09/05 11:38:00;;;;;;;11.30;6.85;;;;;;;;;;4347514;33;20183;-85
2021/09/05 11:40:34;;;;;;;11.12;6.60;;;;;;;;;;4347498;33;20183;-82
2021/09/05 11:42:59;;;;;;;12.00;6.65;;;;;;;;;;4347657;33;20186;-85
2021/09/05 11:45:25;;;;;;;12.93;6.82;;;;;;;;;;4347152;33;20187;-85
2021/09/05 11:48:33;;;;;;;10.43;6.60;;;;;;;;;;4347342;33;20481;-85
2021/09/05 11:51:08;;;;;;;9.27;5.95;;;;;;;;;;4287271;33;20227;-84
2021/09/05 11:53:34;;;;;;;10.13;6.22;;;;;;;;;;4341523;33;20151;-84
2021/09/05 11:56:12;;;;;;;10.13;6.35;;;;;;;;;;4346525;33;20159;-84
2021/09/05 11:59:07;;;;;;;9.52;6.10;;;;;;;;;;4347452;33;20118;-85
2021/09/05 12:01:53;;;;;;;9.07;5.95;;;;;;;;;;4346819;33;20209;-86
2021/09/05 12:04:21;;;;;;;9.50;6.00;;;;;;;;;;4348110;33;20154;-85
2021/09/05 12:06:57;;;;;;;9.07;6.20;;;;;;;;;;4333372;33;20175;-85
2021/09/05 12:09:31;;;;;;;9.18;5.95;;;;;;;;;;4347273;33;20159;-85
2021/09/05 12:12:11;;;;;;;9.35;6.03;;;;;;;;;;4347585;33;20135;-84
2021/09/05 12:14:40;;;;;;;7.75;5.75;;;;;;;;;;4333792;33;20160;-84
2021/09/05 12:17:24;;;;;;;9.13;6.00;;;;;;;;;;4346427;33;20670;-85
2021/09/05 12:20:09;;;;;;;8.98;5.95;;;;;;;;;;4346968;33;20139;-85
2021/09/05 12:22:40;;;;;;;9.18;5.80;;;;;;;;;;4347238;33;20213;-85
2021/09/05 12:25:13;;;;;;;9.00;5.50;;;;;;;;;;4347013;33;20472;-85
2021/09/05 12:28:02;;;;;;;6.65;5.28;;;;;;;;;;4347104;33;20132;-84
2021/09/05 12:30:32;;;;;;;11.18;9.15;;;;;;;;;;4346784;33;20590;-85
2021/09/05 12:33:09;;;;;;;8.27;5.18;;;;;;;;;;4347297;33;20514;-87
2021/09/05 12:35:38;;;;;;;8.30;5.50;;;;;;;;;;4347281;33;20175;-86
2021/09/05 12:38:11;;;;;;;10.75;6.57;;;;;;;;;;4346906;33;20156;-86
2021/09/05 12:40:42;;;;;;;7.65;5.47;;;;;;;;;;4335941;33;20159;-88
2021/09/05 12:43:26;;;;;;;9.30;5.70;;;;;;;;;;4348757;33;20181;-85
2021/09/05 12:46:09;;;;;;;7.90;5.47;;;;;;;;;;4346809;33;20170;-85
2021/09/05 12:48:48;;;;;;;;;;;;;;;;;;;;;
2021/09/05 12:51:17;;;;;;;9.27;5.47;;;;;;;;;;4347415;33;20169;-87
2021/09/05 12:53:53;;;;;;;6.53;5.12;;;;;;;;;;4332929;33;20156;-87
2021/09/05 12:56:19;;;;;;;8.40;5.32;;;;;;;;;;4332542;33;20593;-85
2021/09/05 12:58:44;;;;;;;8.55;5.43;;;;;;;;;;4346186;33;20194;-84
2021/09/05 13:01:19;;;;;;;7.45;5.40;;;;;;;;;;4345987;33;20136;-85
2021/09/05 13:03:44;;;;;;;7.07;5.62;;;;;;;;;;4346576;33;20202;-84
2021/09/05 13:06:10;;;;;;;8.20;5.43;;;;;;;;;;4345345;33;20154;-84
2021/09/05 13:08:45;;;;;;;9.23;5.62;;;;;;;;;;4332018;33;20655;-84
2021/09/05 13:11:27;;;;;;;5.47;4.93;;;;;;;;;;4333203;33;20162;-85
2021/09/05 13:14:05;;;;;;;8.38;5.70;;;;;;;;;;4332001;33;20202;-84
2021/09/05 13:16:33;;;;;;;7.10;5.50;;;;;;;;;;4346325;33;20155;-84
2021/09/05 13:19:01;;;;;;;8.32;5.78;;;;;;;;;;4346372;33;20148;-85
2021/09/05 13:21:43;;;;;;;9.25;5.75;;;;;;;;;;4345732;33;20230;-84
2021/09/05 13:24:17;;;;;;;7.53;5.50;;;;;;;;;;4346085;33;20186;-82
2021/09/05 13:27:02;;;;;;;7.05;5.35;;;;;;;;;;4346471;33;20140;-84
2021/09/05 13:29:27;;;;;;;7.75;5.50;;;;;;;;;;4332578;33;20576;-85
2021/09/05 13:32:18;;;;;;;9.55;5.87;;;;;;;;;;4345675;33;20210;-85
2021/09/05 13:34:46;;;;;;;6.95;5.40;;;;;;;;;;4332355;33;20209;-84
2021/09/05 13:37:16;;;;;;;8.63;5.90;;;;;;;;;;4332098;33;20497;-84
2021/09/05 13:40:04;;;;;;;8.63;5.55;;;;;;;;;;4345499;33;20191;-85
2021/09/05 13:42:29;;;;;;;8.25;5.65;;;;;;;;;;4334186;33;20262;-84
2021/09/05 13:44:55;;;;;;;9.32;5.85;;;;;;;;;;4330850;33;20172;-85
2021/09/05 13:47:26;;;;;;;9.55;6.43;;;;;;;;;;4345377;33;20171;-85
2021/09/05 13:50:03;;;;;;;8.40;5.65;;;;;;;;;;4345375;33;20152;-84
2021/09/05 13:52:30;;;;;;;8.93;6.22;;;;;;;;;;4332548;33;20159;-84
2021/09/05 13:54:55;;;;;;;7.35;5.05;;;;;;;;;;4345640;33;20163;-84
2021/09/05 13:57:20;;;;;;;9.32;5.90;;;;;;;;;;4332793;33;20497;-84
2021/09/05 13:59:46;;;;;;;11.70;6.68;;;;;;;;;;4345623;33;20128;-84
2021/09/05 14:02:11;;;;;;;7.12;5.35;;;;;;;;;;4331888;33;20201;-83
2021/09/05 14:04:39;;;;;;;7.30;5.50;;;;;;;;;;4345978;33;20158;-84
2021/09/05 14:07:07;;;;;;;7.28;5.50;;;;;;;;;;4332031;33;20223;-84
2021/09/05 14:10:05;;;;;;;8.60;5.50;;;;;;;;;;4345559;33;20569;-84
2021/09/05 14:12:30;;;;;;;8.57;6.05;;;;;;;;;;4332261;33;20159;-84
2021/09/05 14:15:02;;;;;;;6.65;5.45;;;;;;;;;;4345916;33;20132;-83
2021/09/05 14:17:27;;;;;;;7.47;5.70;;;;;;;;;;4345524;33;20419;-83
2021/09/05 14:20:00;;;;;;;8.50;6.07;;;;;;;;;;4348768;33;20158;-84
2021/09/05 14:22:30;;;;;;;7.32;5.68;;;;;;;;;;4348962;33;20181;-84
2021/09/05 14:24:55;;;;;;;6.90;5.53;;;;;;;;;;4348831;33;20577;-84
2021/09/05 14:27:25;;;;;;;9.10;6.00;;;;;;;;;;4348611;33;20164;-83
2021/09/05 14:29:58;;;;;;;7.03;5.65;;;;;;;;;;4348720;33;20135;-83
2021/09/05 14:32:29;;;;;;;5.93;5.12;;;;;;;;;;4348969;33;20128;-84
2021/09/05 14:35:22;;;;;;;7.05;5.47;;;;;;;;;;4349220;33;20211;-84
2021/09/05 14:54:22;;;;;;;9.25;6.30;;;;;;;;;;4348409;33;20242;-83
2021/09/05 14:56:48;;;;;;;7.87;6.15;;;;;;;;;;4348272;33;20195;-82
2021/09/05 14:59:27;;;;;;;9.35;5.90;;;;;;;;;;4348127;33;20135;-83
2021/09/05 15:01:57;;;;;;;6.15;5.45;;;;;;;;;;4347952;33;20119;-82
2021/09/05 15:04:47;;;;;;;7.95;6.20;;;;;;;;;;4334165;33;20151;-84
2021/09/05 15:13:17;;;;;;;9.10;5.82;;;;;;;;;;4287609;33;20396;-79
2021/09/05 15:15:42;;;;;;;8.13;6.20;;;;;;;;;;4287329;33;20587;-81
2021/09/05 15:18:08;;;;;;;8.55;6.50;;;;;;;;;;4314955;33;20603;-82
2021/09/05 15:20:33;;;;;;;7.32;6.10;;;;;;;;;;4347999;33;20132;-82
2021/09/05 15:23:00;;;;;;;9.48;6.90;;;;;;;;;;4347667;33;20147;-83
2021/09/05 15:25:29;;;;;;;8.57;6.25;;;;;;;;;;4347425;33;20213;-85
2021/09/05 15:28:04;;;;;;;7.70;6.32;;;;;;;;;;4334349;33;20171;-85
2021/09/05 15:30:45;;;;;;;7.78;6.22;;;;;;;;;;4333620;33;20170;-84
2021/09/05 15:49:38;;;;;;;8.98;6.37;;;;;;;;;;4347237;33;20166;-83
2021/09/05 15:54:43;;;;;;;9.68;6.30;;;;;;;;;;4347633;33;20162;-84
2021/09/05 15:57:09;;;;;;;9.20;6.28;;;;;;;;;;4346872;33;20143;-84
2021/09/05 16:00:00;;;;;;;9.18;6.55;;;;;;;;;;4346826;33;20278;-82
2021/09/05 16:16:39;;;;;;;15.43;8.98;;;;;;;;;;4346713;33;20151;-84
2021/09/05 16:19:08;;;;;;;11.43;7.37;;;;;;;;;;4334654;33;20177;-84
2021/09/05 16:21:33;;;;;;;11.05;7.72;;;;;;;;;;4346402;33;20194;-84
2021/09/05 16:23:58;;;;;;;11.75;6.75;;;;;;;;;;4346737;33;20148;-83
2021/09/05 16:26:24;;;;;;;11.50;7.00;;;;;;;;;;4346877;33;20136;-84
2021/09/05 16:28:51;;;;;;;10.77;7.18;;;;;;;;;;4333268;33;20159;-83
2021/09/05 16:31:28;;;;;;;10.02;7.20;;;;;;;;;;4346807;33;20474;-83
2021/09/05 16:34:07;;;;;;;;;;;;;;;;;;;;;
2021/09/05 16:36:56;;;;;;;10.88;7.25;;;;;;;;;;4347583;33;20155;-83
2021/09/05 16:42:08;;;;;;;9.82;7.07;;;;;;;;;;4346378;33;20181;-85
2021/09/05 16:44:34;;;;;;;11.70;7.65;;;;;;;;;;4346747;33;20162;-84
2021/09/05 16:47:02;;;;;;;12.65;7.75;;;;;;;;;;4346518;33;20486;-84
2021/09/05 16:49:33;;;;;;;14.10;7.82;;;;;;;;;;4346544;33;20468;-84
2021/09/05 16:52:04;;;;;;;12.10;7.15;;;;;;;;;;4333748;33;20159;-84
2021/09/05 16:54:29;;;;;;;15.10;7.80;;;;;;;;;;4346336;33;20136;-84
2021/09/05 16:57:00;;;;;;;11.73;7.75;;;;;;;;;;4346750;33;20217;-84
2021/09/05 16:59:26;;;;;;;11.60;7.25;;;;;;;;;;4346820;33;20201;-85
2021/09/05 17:01:57;;;;;;;11.05;7.12;;;;;;;;;;4347097;33;20131;-85
2021/09/05 17:04:30;;;;;;;11.00;7.65;;;;;;;;;;4333095;33;20163;-84
2021/09/05 17:07:05;;;;;;;11.55;7.75;;;;;;;;;;4346204;33;20191;-84
2021/09/05 17:09:33;;;;;;;11.38;7.18;;;;;;;;;;4346849;33;20430;-84
2021/09/05 17:12:01;;;;;;;10.52;7.30;;;;;;;;;;4333831;33;20175;-83
2021/09/05 17:14:26;;;;;;;12.50;7.55;;;;;;;;;;4334232;33;20234;-85
2021/09/05 17:16:52;;;;;;;12.55;7.55;;;;;;;;;;4348132;33;20132;-84
2021/09/05 17:19:20;;;;;;;9.98;7.03;;;;;;;;;;4347664;33;20139;-83
2021/09/05 17:21:55;;;;;;;14.15;7.85;;;;;;;;;;4340025;33;20237;-83
2021/09/05 17:24:21;;;;;;;12.77;6.93;;;;;;;;;;4331396;33;20236;-80
2021/09/05 17:26:48;;;;;;;12.30;7.70;;;;;;;;;;4331664;33;20132;-84
2021/09/05 17:29:18;;;;;;;17.85;8.60;;;;;;;;;;4331314;33;20513;-84
2021/09/05 17:32:03;;;;;;;;;;;;;;;;;;;;;
2021/09/05 17:34:52;;;;;;;11.15;7.32;;;;;;;;;;4331600;33;20148;-86
2021/09/05 17:37:29;;;;;;;11.95;7.43;;;;;;;;;;4331209;33;20172;-85
2021/09/05 17:39:54;;;;;;;13.25;7.72;;;;;;;;;;4317637;33;20206;-84
2021/09/05 17:42:25;;;;;;;15.70;7.97;;;;;;;;;;4317576;33;20164;-86
2021/09/05 17:44:59;;;;;;;13.10;7.75;;;;;;;;;;4330793;33;20164;-85
2021/09/05 17:47:24;;;;;;;12.82;8.50;;;;;;;;;;4316036;33;20572;-86
2021/09/05 17:50:03;;;;;;;15.15;8.52;;;;;;;;;;4317384;33;20178;-85
2021/09/05 17:52:35;;;;;;;15.32;8.35;;;;;;;;;;4316954;33;20163;-84
2021/09/05 17:55:11;;;;;;;13.80;8.90;;;;;;;;;;4331174;33;20154;-85
2021/09/05 17:57:42;;;;;;;15.25;10.30;;;;;;;;;;4317788;33;20698;-85
2021/09/05 18:00:08;;;;;;;12.23;7.87;;;;;;;;;;4331340;33;20143;-84
2021/09/05 18:02:41;;;;;;;13.40;7.75;;;;;;;;;;4330921;33;20175;-84
2021/09/05 18:05:27;;;;;;;13.77;8.20;;;;;;;;;;4317680;33;20160;-84
2021/09/05 18:08:21;;;;;;;12.45;7.75;;;;;;;;;;4330657;33;20136;-85
2021/09/05 18:10:58;;;;;;;12.98;8.23;;;;;;;;;;4315854;33;20279;-85
2021/09/05 18:13:24;;;;;;;11.68;7.55;;;;;;;;;;4317736;33;20325;-85
2021/09/05 18:16:04;;;;;;;11.18;8.07;;;;;;;;;;4317777;33;20245;-84
2021/09/05 18:18:32;;;;;;;12.18;8.23;;;;;;;;;;4317384;33;20156;-85
2021/09/05 18:21:00;;;;;;;12.48;8.45;;;;;;;;;;4330977;33;20166;-83
2021/09/05 18:23:42;;;;;;;12.15;8.77;;;;;;;;;;4330785;33;20171;-84
2021/09/05 18:26:21;;;;;;;13.10;8.50;;;;;;;;;;4330956;33;20133;-84
2021/09/05 18:28:55;;;;;;;11.75;8.60;;;;;;;;;;4331009;33;20150;-84
2021/09/05 18:31:29;;;;;;;12.43;8.35;;;;;;;;;;4317132;33;20159;-85
2021/09/05 18:34:20;;;;;;;14.82;8.55;;;;;;;;;;4330778;33;20202;-84
2021/09/05 18:36:45;;;;;;;17.02;9.52;;;;;;;;;;4317199;33;20641;-84
2021/09/05 18:39:31;;;;;;;13.77;8.77;;;;;;;;;;4331566;33;20132;-84
2021/09/05 18:41:56;;;;;;;11.75;8.45;;;;;;;;;;4317295;33;20474;-85
2021/09/05 18:44:35;;;;;;;14.27;8.93;;;;;;;;;;4330773;33;20159;-84
2021/09/05 18:47:04;;;;;;;14.38;8.55;;;;;;;;;;4330407;33;20207;-85
2021/09/05 18:49:42;;;;;;;14.90;8.80;;;;;;;;;;4317627;33;20190;-85
2021/09/05 18:52:07;;;;;;;14.13;9.52;;;;;;;;;;4317053;33;20159;-84
2021/09/05 18:54:35;;;;;;;17.02;8.90;;;;;;;;;;4331061;33;20194;-85